createdAt,value
2018-11-22T12:19:06.514Z,25.17
2018-11-22T12:24:09.733Z,27.00
2018-11-22T12:29:13.299Z,26.40
2018-11-22T12:34:20.429Z,25.33
2018-11-22T12:39:23.687Z,31.10
2018-11-22T12:44:26.909Z,24.70
2018-11-22T12:49:30.152Z,27.83
2018-11-22T12:54:33.389Z,22.93
2018-11-22T12:59:36.628Z,23.37
2018-11-22T13:04:39.858Z,21.47
2018-11-22T13:09:43.105Z,21.50
2018-11-22T13:14:46.313Z,21.57
2018-11-22T13:19:49.532Z,23.93
2018-11-22T13:24:52.753Z,22.83
2018-11-22T13:29:55.993Z,22.33
2018-11-22T13:34:59.223Z,24.20
2018-11-22T13:40:02.437Z,19.30
2018-11-22T13:45:09.485Z,22.63
2018-11-22T13:50:16.116Z,23.27
2018-11-22T13:55:19.333Z,21.20
2018-11-22T14:00:23.813Z,23.90
2018-11-22T14:05:27.068Z,24.73
2018-11-22T14:10:30.293Z,18.53
2018-11-22T14:15:33.520Z,22.23
2018-11-22T14:20:37.150Z,17.60
2018-11-22T14:25:40.349Z,27.63
2018-11-22T14:30:43.552Z,22.77
2018-11-22T14:35:46.833Z,16.10
2018-11-22T14:40:50.061Z,23.53
2018-11-22T14:45:53.269Z,27.47
2018-11-22T14:51:01.127Z,23.37
2018-11-22T14:56:05.235Z,20.73
2018-11-22T15:01:07.753Z,26.30
2018-11-22T15:06:10.976Z,29.07
2018-11-22T15:11:14.198Z,22.30
2018-11-22T15:16:17.412Z,23.87
2018-11-22T15:21:20.652Z,22.33
2018-11-22T15:26:23.908Z,23.47
2018-11-22T15:31:27.185Z,25.90
2018-11-22T15:36:30.405Z,25.00
2018-11-22T15:41:33.625Z,19.27
2018-11-22T15:46:36.866Z,20.27
2018-11-22T15:51:40.085Z,22.33
2018-11-22T15:56:43.309Z,28.50
2018-11-22T16:01:46.543Z,23.17
2018-11-22T16:06:49.761Z,23.90
2018-11-22T16:11:52.993Z,22.03
2018-11-22T16:16:56.253Z,24.57
2018-11-22T16:21:59.485Z,18.70
2018-11-22T16:27:03.008Z,19.67
2018-11-22T16:32:06.222Z,20.60
2018-11-22T16:37:09.461Z,23.60
2018-11-22T16:42:12.721Z,21.77
2018-11-22T16:47:15.973Z,25.63
2018-11-22T16:52:19.208Z,22.17
2018-11-22T16:57:22.412Z,23.20
2018-11-22T17:02:25.659Z,27.70
2018-11-22T17:07:28.876Z,25.00
2018-11-22T17:12:32.103Z,34.20
2018-11-22T17:17:35.348Z,40.67
2018-11-22T17:22:40.153Z,33.27
2018-11-22T17:27:44.120Z,35.60
2018-11-22T17:32:47.365Z,26.37
2018-11-22T17:37:51.109Z,28.50
2018-11-22T17:42:54.396Z,32.17
2018-11-22T17:47:57.748Z,27.77
2018-11-22T17:53:01.369Z,27.13
2018-11-22T17:58:04.906Z,26.10
2018-11-22T18:03:08.447Z,28.33
2018-11-22T18:08:11.757Z,29.60
2018-11-22T18:13:15.117Z,52.50
2018-11-22T18:18:18.396Z,50.20
2018-11-22T18:23:21.673Z,32.63
2018-11-22T18:28:24.919Z,30.57
2018-11-22T18:33:28.236Z,27.97
2018-11-22T18:38:31.501Z,25.63
2018-11-22T18:43:35.400Z,37.00
2018-11-22T18:48:38.021Z,31.20
2018-11-22T18:53:41.294Z,41.03
2018-11-22T18:58:44.532Z,37.50
2018-11-22T19:03:47.786Z,34.73
2018-11-22T19:08:51.020Z,29.53
2018-11-22T19:13:54.269Z,26.50
2018-11-22T19:18:57.770Z,25.70
2018-11-22T19:24:01.214Z,28.50
2018-11-22T19:29:04.645Z,28.47
2018-11-22T19:34:08.081Z,33.93
2018-11-22T19:39:11.321Z,25.47
2018-11-22T19:44:14.561Z,23.30
2018-11-22T19:49:17.795Z,22.13
2018-11-22T19:54:21.047Z,21.60
2018-11-22T19:59:24.323Z,21.60
2018-11-22T20:04:27.547Z,26.87
2018-11-22T20:09:30.817Z,26.13
2018-11-22T20:14:34.081Z,23.17
2018-11-22T20:19:37.533Z,25.33
2018-11-22T20:24:40.873Z,25.53
2018-11-22T20:29:44.153Z,22.07
2018-11-22T20:34:47.461Z,20.37
2018-11-22T20:39:50.961Z,25.03
2018-11-22T20:44:54.294Z,25.07
2018-11-22T20:49:57.545Z,24.83
2018-11-22T20:55:00.832Z,20.20
2018-11-22T21:00:05.591Z,24.03
2018-11-22T21:05:09.892Z,21.60
2018-11-22T21:10:16.390Z,21.57
2018-11-22T21:15:22.628Z,23.10
2018-11-22T21:20:27.518Z,21.63
2018-11-22T21:25:30.788Z,21.87
2018-11-22T21:30:35.384Z,22.90
2018-11-22T21:35:38.652Z,23.30
2018-11-22T21:40:41.949Z,20.20
2018-11-22T21:45:45.375Z,24.33
2018-11-22T21:50:48.592Z,21.33
2018-11-22T21:55:51.818Z,25.23
2018-11-22T22:00:55.046Z,22.70
2018-11-22T22:05:58.289Z,24.43
2018-11-22T22:11:01.522Z,21.43
2018-11-22T22:16:04.879Z,21.60
2018-11-22T22:21:08.131Z,27.83
2018-11-22T22:26:11.365Z,22.50
2018-11-22T22:31:14.609Z,25.00
2018-11-22T22:36:17.833Z,23.73
2018-11-22T22:41:21.077Z,21.30
2018-11-22T22:46:24.345Z,18.80
2018-11-22T22:51:27.596Z,22.70
2018-11-22T22:56:30.837Z,21.00
2018-11-22T23:01:34.081Z,22.00
2018-11-22T23:06:37.341Z,21.17
2018-11-22T23:11:40.565Z,23.03
2018-11-22T23:16:43.782Z,20.40
2018-11-22T23:26:56.553Z,21.13
2018-11-22T23:31:59.793Z,17.97
2018-11-22T23:37:03.037Z,20.97
2018-11-22T23:42:06.261Z,17.00
2018-11-22T23:47:09.482Z,19.93
2018-11-22T23:52:12.784Z,14.30
2018-11-22T23:57:16.021Z,18.57
